createdAt,value
2018-03-21T00:00:06.943Z,24.93
2018-03-21T00:02:36.335Z,24.50
2018-03-21T00:05:06.636Z,25.83
2018-03-21T00:07:37.043Z,24.47
2018-03-21T00:10:07.922Z,21.40
2018-03-21T00:12:44.526Z,28.27
2018-03-21T00:15:14.388Z,23.30
2018-03-21T00:17:46.059Z,25.30
2018-03-21T00:20:15.383Z,26.43
2018-03-21T00:22:44.460Z,26.20
2018-03-21T00:25:15.619Z,27.43
2018-03-21T00:28:05.640Z,25.67
2018-03-21T00:30:38.160Z,27.20
2018-03-21T00:33:09.431Z,24.67
2018-03-21T00:35:38.515Z,26.97
2018-03-21T00:38:15.155Z,26.43
2018-03-21T00:40:44.969Z,27.80
2018-03-21T00:43:14.292Z,26.20
2018-03-21T00:46:10.787Z,27.67
2018-03-21T00:48:45.368Z,24.83
2018-03-21T00:51:16.156Z,24.07
2018-03-21T00:53:43.471Z,29.83
2018-03-21T00:56:11.383Z,29.63
2018-03-21T00:58:54.560Z,25.90
2018-03-21T01:01:22.692Z,28.53
2018-03-21T01:03:54.964Z,33.03
2018-03-21T01:06:29.619Z,29.50
2018-03-21T01:08:59.223Z,26.20
2018-03-21T01:11:28.419Z,26.13
2018-03-21T01:13:55.756Z,24.90
2018-03-21T01:16:23.083Z,30.13
2018-03-21T01:18:51.447Z,26.33
2018-03-21T01:21:19.064Z,27.33
2018-03-21T01:24:03.927Z,25.07
2018-03-21T01:26:45.301Z,28.70
2018-03-21T01:29:20.020Z,23.13
2018-03-21T01:31:51.631Z,25.53
2018-03-21T01:34:21.122Z,25.67
2018-03-21T01:36:52.003Z,24.13
2018-03-21T01:39:22.907Z,28.43
2018-03-21T01:41:55.678Z,29.70
2018-03-21T01:44:25.947Z,27.20
2018-03-21T01:46:54.335Z,24.43
2018-03-21T01:49:26.448Z,29.67
2018-03-21T01:51:54.427Z,33.27
2018-03-21T01:54:25.917Z,26.10
2018-03-21T01:56:53.156Z,24.20
2018-03-21T01:59:21.531Z,25.57
2018-03-21T02:01:55.267Z,25.00
2018-03-21T02:04:25.860Z,27.63
2018-03-21T02:06:58.284Z,30.60
2018-03-21T02:09:38.927Z,27.37
2018-03-21T02:12:13.354Z,30.80
2018-03-21T02:14:45.688Z,32.30
2018-03-21T02:17:14.296Z,27.13
2018-03-21T02:19:45.945Z,25.90
2018-03-21T02:22:13.296Z,29.90
2018-03-21T02:24:44.024Z,23.10
2018-03-21T02:27:11.384Z,25.67
2018-03-21T02:29:46.071Z,23.43
2018-03-21T02:32:21.280Z,25.97
2018-03-21T02:34:51.607Z,25.43
2018-03-21T02:37:26.764Z,26.17
2018-03-21T02:40:13.918Z,30.00
2018-03-21T02:42:41.265Z,23.20
2018-03-21T02:45:21.254Z,26.90
2018-03-21T02:47:54.852Z,23.93
2018-03-21T02:50:41.968Z,22.33
2018-03-21T02:53:31.728Z,27.70
2018-03-21T02:56:11.470Z,27.53
2018-03-21T02:58:44.778Z,26.87
2018-03-21T03:01:20.480Z,26.07
2018-03-21T03:03:55.845Z,27.13
2018-03-21T03:06:41.587Z,31.67
2018-03-21T03:09:11.268Z,27.50
2018-03-21T03:11:46.567Z,29.17
2018-03-21T03:14:14.071Z,26.20
2018-03-21T03:16:41.451Z,29.83
2018-03-21T03:19:08.892Z,26.95
2018-03-21T03:21:37.015Z,34.70
2018-03-21T03:24:12.099Z,27.47
2018-03-21T03:26:46.326Z,31.73
2018-03-21T03:29:22.336Z,28.87
2018-03-21T03:31:53.719Z,29.70
2018-03-21T03:34:36.903Z,24.33
2018-03-21T03:37:10.268Z,29.30
2018-03-21T03:39:45.812Z,33.17
2018-03-21T03:42:27.444Z,29.00
2018-03-21T03:45:05.006Z,24.70
2018-03-21T03:47:38.544Z,27.63
2018-03-21T03:50:11.139Z,23.70
2018-03-21T03:52:44.681Z,26.23
2018-03-21T03:55:15.460Z,26.97
2018-03-21T03:57:42.861Z,23.23
2018-03-21T04:00:25.279Z,21.63
2018-03-21T04:03:01.359Z,23.17
2018-03-21T04:05:38.907Z,22.63
2018-03-21T04:08:14.347Z,21.27
2018-03-21T04:10:55.948Z,21.27
2018-03-21T04:13:26.084Z,24.87
2018-03-21T04:16:03.439Z,21.97
2018-03-21T04:18:39.739Z,27.37
2018-03-21T04:21:21.183Z,23.73
2018-03-21T04:23:58.635Z,21.87
2018-03-21T04:26:46.207Z,21.63
2018-03-21T04:29:16.622Z,20.20
2018-03-21T04:31:46.981Z,17.20
2018-03-21T04:34:17.402Z,17.57
2018-03-21T04:37:10.180Z,16.30
2018-03-21T04:39:43.576Z,16.77
2018-03-21T04:42:16.103Z,14.90
2018-03-21T04:44:51.459Z,18.27
2018-03-21T04:47:25.610Z,15.73
2018-03-21T04:49:59.197Z,18.53
2018-03-21T04:52:32.812Z,15.97
2018-03-21T04:55:00.355Z,17.03
2018-03-21T04:57:35.778Z,16.40
2018-03-21T05:00:04.235Z,18.97
2018-03-21T05:02:32.535Z,21.47
2018-03-21T05:05:05.962Z,17.40
2018-03-21T05:07:36.460Z,22.40
2018-03-21T05:10:04.603Z,17.63
2018-03-21T05:12:33.133Z,17.80
2018-03-21T05:15:00.236Z,19.70
2018-03-21T05:17:31.512Z,19.77
2018-03-21T05:20:03.643Z,22.80
2018-03-21T05:22:35.251Z,17.30
2018-03-21T05:25:02.791Z,17.47
2018-03-21T05:27:30.082Z,14.83
2018-03-21T05:30:02.972Z,16.70
2018-03-21T05:32:37.539Z,14.73
2018-03-21T05:35:08.614Z,14.85
2018-03-21T05:37:38.231Z,15.77
2018-03-21T05:40:11.465Z,14.67
2018-03-21T05:42:45.767Z,13.70
2018-03-21T05:45:19.222Z,12.07
2018-03-21T05:47:50.614Z,13.77
2018-03-21T05:50:27.648Z,13.23
2018-03-21T05:52:57.632Z,14.13
2018-03-21T05:55:24.288Z,16.47
2018-03-21T05:57:58.115Z,17.23
2018-03-21T06:00:27.131Z,11.73
2018-03-21T06:03:03.971Z,15.00
2018-03-21T06:05:35.535Z,14.40
2018-03-21T06:08:09.424Z,15.53
2018-03-21T06:10:36.044Z,10.53
2018-03-21T06:13:03.416Z,16.73
2018-03-21T06:15:37.931Z,11.57
2018-03-21T06:18:08.377Z,18.23
2018-03-21T06:20:52.375Z,10.47
2018-03-21T06:23:22.783Z,11.23
2018-03-21T06:25:57.132Z,10.20
2018-03-21T06:28:34.778Z,16.60
2018-03-21T06:31:07.818Z,10.57
2018-03-21T06:33:35.108Z,15.40
2018-03-21T06:36:10.776Z,11.63
2018-03-21T06:38:38.203Z,9.73
2018-03-21T06:41:05.762Z,10.97
2018-03-21T06:43:40.376Z,9.30
2018-03-21T06:46:07.834Z,10.50
2018-03-21T06:48:34.389Z,14.93
2018-03-21T06:51:08.808Z,13.33
2018-03-21T06:53:39.528Z,13.33
2018-03-21T06:56:09.607Z,13.00
2018-03-21T06:58:40.672Z,9.40
2018-03-21T07:01:12.304Z,10.07
2018-03-21T07:03:39.571Z,13.80
2018-03-21T07:06:06.815Z,9.50
2018-03-21T07:08:37.151Z,9.30
2018-03-21T07:11:09.730Z,9.87
2018-03-21T07:13:52.591Z,13.23
2018-03-21T07:16:40.144Z,8.10
2018-03-21T07:19:07.427Z,11.50
2018-03-21T07:22:09.591Z,13.57
2018-03-21T07:24:37.783Z,13.98
2018-03-21T07:27:05.654Z,13.07
2018-03-21T07:29:38.972Z,10.30
2018-03-21T07:32:11.967Z,11.47
2018-03-21T07:34:42.592Z,9.67
2018-03-21T07:37:15.919Z,9.23
2018-03-21T07:39:46.539Z,10.80
2018-03-21T07:42:19.091Z,10.63
2018-03-21T07:44:50.711Z,8.40
2018-03-21T07:47:23.173Z,10.97
2018-03-21T07:49:51.871Z,9.07
2018-03-21T07:52:18.488Z,14.97
2018-03-21T07:54:51.615Z,8.30
2018-03-21T07:57:18.992Z,11.60
2018-03-21T07:59:45.511Z,7.27
2018-03-21T08:02:12.092Z,8.60
2018-03-21T08:04:38.579Z,7.53
2018-03-21T08:07:08.968Z,8.37
2018-03-21T08:09:39.186Z,7.50
2018-03-21T08:12:11.591Z,10.47
2018-03-21T08:14:39.216Z,8.23
2018-03-21T08:17:17.448Z,8.93
2018-03-21T08:19:50.223Z,8.73
2018-03-21T08:22:26.482Z,7.10
2018-03-21T08:24:56.909Z,9.90
2018-03-21T08:27:29.464Z,7.30
2018-03-21T08:29:57.803Z,9.13
2018-03-21T08:32:31.617Z,7.63
2018-03-21T08:35:01.426Z,7.63
2018-03-21T08:37:31.735Z,7.73
2018-03-21T08:40:05.149Z,7.13
2018-03-21T08:42:37.621Z,8.27
2018-03-21T08:45:09.212Z,8.40
2018-03-21T08:47:41.512Z,7.70
2018-03-21T08:50:11.879Z,11.20
2018-03-21T08:52:39.270Z,8.47
2018-03-21T08:55:21.779Z,9.97
2018-03-21T08:57:48.871Z,9.70
2018-03-21T09:00:22.523Z,9.70
2018-03-21T09:02:55.051Z,7.27
2018-03-21T09:05:23.467Z,8.20
2018-03-21T09:08:11.941Z,6.00
2018-03-21T09:10:41.438Z,10.30
2018-03-21T09:13:08.996Z,10.20
2018-03-21T09:15:36.596Z,7.37
2018-03-21T09:18:12.170Z,7.60
2018-03-21T09:20:38.936Z,7.57
2018-03-21T09:23:11.055Z,8.37
2018-03-21T09:25:39.635Z,7.40
2018-03-21T09:28:07.028Z,6.43
2018-03-21T09:30:39.351Z,7.63
2018-03-21T09:33:10.779Z,7.90
2018-03-21T09:35:39.841Z,7.10
2018-03-21T09:38:08.987Z,8.73
2018-03-21T09:40:39.360Z,7.90
2018-03-21T09:43:12.052Z,7.90
2018-03-21T09:45:40.815Z,7.43
2018-03-21T09:48:09.020Z,8.57
2018-03-21T09:50:40.196Z,5.90
2018-03-21T09:53:07.461Z,5.60
2018-03-21T09:55:36.830Z,5.20
2018-03-21T09:58:04.254Z,4.10
2018-03-21T10:00:36.396Z,4.70
2018-03-21T10:03:10.183Z,7.33
2018-03-21T10:05:37.504Z,6.77
2018-03-21T10:08:05.751Z,4.20
2018-03-21T10:10:33.746Z,13.20
2018-03-21T10:13:01.414Z,4.67
2018-03-21T10:15:41.954Z,6.63
2018-03-21T10:18:09.251Z,2.97
2018-03-21T10:20:36.450Z,5.23
2018-03-21T10:23:10.267Z,3.17
2018-03-21T10:25:40.680Z,3.87
2018-03-21T10:28:09.231Z,5.43
2018-03-21T10:30:36.048Z,6.57
2018-03-21T10:33:04.414Z,5.13
2018-03-21T10:35:34.743Z,3.60
2018-03-21T10:38:02.187Z,3.77
2018-03-21T10:40:36.311Z,4.17
2018-03-21T10:43:04.912Z,6.10
2018-03-21T10:45:37.236Z,3.90
2018-03-21T10:48:10.468Z,2.63
2018-03-21T10:50:42.240Z,3.07
2018-03-21T10:53:08.722Z,2.77
2018-03-21T10:55:41.193Z,3.50
2018-03-21T10:58:13.883Z,4.17
2018-03-21T11:00:43.476Z,3.77
2018-03-21T11:03:14.033Z,2.60
2018-03-21T11:05:41.304Z,3.67
2018-03-21T11:08:12.649Z,3.90
2018-03-21T11:10:44.046Z,8.43
2018-03-21T11:13:13.863Z,4.03
2018-03-21T11:15:56.687Z,3.40
2018-03-21T11:18:27.416Z,3.73
2018-03-21T11:21:10.720Z,4.33
2018-03-21T11:23:39.767Z,3.23
2018-03-21T11:26:06.935Z,4.60
2018-03-21T11:28:35.986Z,5.90
2018-03-21T11:31:03.338Z,5.60
2018-03-21T11:33:32.674Z,4.07
2018-03-21T11:36:02.747Z,5.63
2018-03-21T11:38:31.252Z,5.23
2018-03-21T11:41:03.819Z,5.90
2018-03-21T11:43:31.864Z,5.10
2018-03-21T11:45:59.028Z,7.57
2018-03-21T11:48:26.717Z,3.10
2018-03-21T11:50:59.261Z,4.30
2018-03-21T11:53:33.779Z,3.90
2018-03-21T11:56:12.186Z,2.90
2018-03-21T11:58:42.527Z,3.10
2018-03-21T12:01:13.063Z,3.13
2018-03-21T12:03:40.425Z,4.80
2018-03-21T12:06:11.093Z,6.93
2018-03-21T12:08:46.389Z,2.57
2018-03-21T12:11:13.779Z,2.50
2018-03-21T12:13:41.376Z,3.97
2018-03-21T12:16:14.008Z,3.83
2018-03-21T12:18:41.848Z,4.47
2018-03-21T12:21:09.808Z,2.80
2018-03-21T12:23:38.841Z,2.33
2018-03-21T12:26:06.359Z,3.17
2018-03-21T12:28:38.884Z,3.30
2018-03-21T12:31:07.379Z,2.30
2018-03-21T12:33:42.004Z,2.87
2018-03-21T12:36:11.606Z,4.83
2018-03-21T12:38:43.807Z,6.03
2018-03-21T12:41:15.070Z,4.40
2018-03-21T12:43:47.707Z,4.13
2018-03-21T12:46:16.320Z,3.07
2018-03-21T12:48:51.021Z,4.73
2018-03-21T12:51:19.660Z,3.20
2018-03-21T12:53:48.151Z,3.53
2018-03-21T12:56:20.469Z,6.07
2018-03-21T12:59:06.204Z,8.73
2018-03-21T13:01:38.119Z,2.73
2018-03-21T13:04:05.688Z,5.30
2018-03-21T13:06:36.011Z,4.40
2018-03-21T13:09:06.730Z,7.83
2018-03-21T13:11:35.889Z,2.57
2018-03-21T13:14:06.377Z,4.20
2018-03-21T13:16:33.755Z,3.03
2018-03-21T13:19:02.059Z,3.90
2018-03-21T13:21:33.813Z,9.63
2018-03-21T13:24:08.561Z,3.80
2018-03-21T13:26:35.208Z,3.27
2018-03-21T13:29:03.616Z,3.50
2018-03-21T13:31:36.820Z,3.80
2018-03-21T13:34:13.842Z,6.40
2018-03-21T13:36:41.042Z,2.80
2018-03-21T13:39:08.732Z,4.47
2018-03-21T13:41:37.380Z,3.43
2018-03-21T13:44:08.169Z,3.33
2018-03-21T13:46:34.848Z,4.20
2018-03-21T13:49:10.347Z,3.17
2018-03-21T13:51:37.726Z,4.87
2018-03-21T13:54:10.636Z,4.17
2018-03-21T13:56:37.986Z,6.50
2018-03-21T13:59:13.370Z,3.97
2018-03-21T14:01:46.699Z,6.23
2018-03-21T14:04:17.481Z,2.87
2018-03-21T14:06:44.878Z,4.53
2018-03-21T14:09:14.289Z,2.57
2018-03-21T14:11:45.184Z,2.80
2018-03-21T14:14:21.664Z,2.57
2018-03-21T14:16:49.360Z,3.93
2018-03-21T14:19:21.351Z,2.60
2018-03-21T14:21:48.642Z,3.83
2018-03-21T14:24:19.151Z,4.17
2018-03-21T14:26:47.095Z,4.10
2018-03-21T14:29:19.495Z,2.83
2018-03-21T14:31:46.856Z,2.70
2018-03-21T14:34:17.095Z,3.10
2018-03-21T14:36:45.343Z,3.70
2018-03-21T14:39:30.064Z,3.40
2018-03-21T14:42:02.063Z,4.10
2018-03-21T14:44:31.479Z,3.13
2018-03-21T14:46:58.782Z,3.03
2018-03-21T14:49:28.352Z,6.33
2018-03-21T14:51:55.630Z,3.70
2018-03-21T14:54:23.819Z,2.73
2018-03-21T14:56:52.008Z,3.90
2018-03-21T14:59:26.811Z,2.93
2018-03-21T15:01:54.861Z,7.63
2018-03-21T15:04:24.099Z,4.90
2018-03-21T15:06:51.407Z,5.07
2018-03-21T15:09:24.616Z,4.00
2018-03-21T15:11:55.934Z,5.13
2018-03-21T15:14:26.508Z,3.27
2018-03-21T15:16:53.111Z,3.17
2018-03-21T15:19:22.888Z,5.80
2018-03-21T15:21:51.260Z,2.30
2018-03-21T15:24:17.879Z,3.47
2018-03-21T15:26:44.371Z,2.77
2018-03-21T15:29:15.079Z,2.50
2018-03-21T15:31:43.615Z,3.20
2018-03-21T15:34:13.934Z,4.40
2018-03-21T15:36:41.440Z,6.67
2018-03-21T15:39:15.096Z,3.00
2018-03-21T15:41:46.400Z,3.70
2018-03-21T15:44:21.731Z,4.70
2018-03-21T15:46:53.299Z,2.97
2018-03-21T15:49:23.760Z,3.17
2018-03-21T15:51:51.035Z,3.43
2018-03-21T15:54:28.210Z,2.50
2018-03-21T15:57:01.878Z,3.53
2018-03-21T15:59:36.352Z,2.70
2018-03-21T16:02:08.868Z,2.70
2018-03-21T16:04:40.632Z,4.73
2018-03-21T16:07:07.947Z,2.40
2018-03-21T16:09:53.759Z,3.23
2018-03-21T16:12:29.135Z,2.67
2018-03-21T16:14:56.502Z,1.87
2018-03-21T16:17:23.763Z,2.20
2018-03-21T16:20:01.009Z,4.67
2018-03-21T16:22:32.905Z,2.37
2018-03-21T16:25:05.441Z,1.60
2018-03-21T16:27:37.797Z,2.50
2018-03-21T16:30:07.327Z,2.40
2018-03-21T16:32:34.104Z,3.40
2018-03-21T16:35:01.576Z,1.90
2018-03-21T16:37:57.865Z,2.23
2018-03-21T16:40:24.439Z,6.87
2018-03-21T16:42:52.015Z,3.40
2018-03-21T16:45:24.167Z,2.70
2018-03-21T16:47:53.909Z,1.90
2018-03-21T16:50:22.952Z,2.23
2018-03-21T16:52:51.467Z,5.60
2018-03-21T16:55:19.687Z,5.60
2018-03-21T16:57:59.055Z,7.30
2018-03-21T17:00:26.412Z,2.37
2018-03-21T17:02:53.748Z,4.13
2018-03-21T17:05:22.439Z,4.30
2018-03-21T17:07:51.872Z,3.73
2018-03-21T17:10:28.646Z,3.73
2018-03-21T17:13:01.932Z,1.97
2018-03-21T17:15:47.690Z,7.60
2018-03-21T17:18:18.200Z,2.27
2018-03-21T17:20:53.068Z,3.03
2018-03-21T17:23:22.049Z,2.07
2018-03-21T17:25:55.333Z,2.60
2018-03-21T17:28:31.478Z,3.27
2018-03-21T17:30:58.830Z,3.60
2018-03-21T17:33:51.221Z,4.60
2018-03-21T17:36:40.825Z,2.23
2018-03-21T17:39:14.603Z,7.60
2018-03-21T17:41:59.011Z,1.83
2018-03-21T17:44:27.366Z,4.10
2018-03-21T17:46:56.542Z,3.77
2018-03-21T17:49:23.212Z,1.30
2018-03-21T17:51:51.564Z,3.10
2018-03-21T17:54:24.011Z,3.23
2018-03-21T17:56:54.307Z,4.07
2018-03-21T17:59:22.514Z,2.97
2018-03-21T18:01:51.759Z,3.07
2018-03-21T18:04:21.076Z,4.07
2018-03-21T18:06:50.908Z,2.90
2018-03-21T18:09:18.028Z,1.77
2018-03-21T18:11:44.968Z,4.03
2018-03-21T18:14:13.532Z,3.20
2018-03-21T18:16:45.922Z,4.50
2018-03-21T18:19:16.523Z,8.30
2018-03-21T18:21:45.307Z,7.70
2018-03-21T18:24:15.707Z,8.13
2018-03-21T18:26:44.997Z,6.60
2018-03-21T18:29:15.664Z,7.87
2018-03-21T18:31:46.588Z,7.13
2018-03-21T18:34:15.935Z,9.23
2018-03-21T18:36:43.287Z,14.77
2018-03-21T18:39:13.479Z,10.50
2018-03-21T18:41:40.623Z,6.73
2018-03-21T18:44:07.932Z,5.43
2018-03-21T18:46:35.004Z,4.63
2018-03-21T18:49:09.152Z,5.10
2018-03-21T18:51:37.625Z,4.00
2018-03-21T18:54:07.520Z,11.83
2018-03-21T18:56:39.882Z,5.00
2018-03-21T18:59:12.332Z,8.90
2018-03-21T19:01:43.592Z,11.17
2018-03-21T19:04:14.320Z,10.80
2018-03-21T19:06:43.164Z,6.80
2018-03-21T19:09:10.543Z,7.53
2018-03-21T19:11:40.599Z,6.43
2018-03-21T19:14:22.442Z,8.60
2018-03-21T19:16:55.529Z,5.50
2018-03-21T19:19:22.617Z,4.43
2018-03-21T19:21:54.299Z,7.67
2018-03-21T19:24:41.197Z,4.93
2018-03-21T19:27:23.928Z,10.13
2018-03-21T19:29:57.392Z,6.80
2018-03-21T19:32:24.707Z,8.80
2018-03-21T19:34:52.671Z,9.57
2018-03-21T19:37:25.145Z,14.33
2018-03-21T19:39:52.617Z,6.17
2018-03-21T19:42:22.801Z,9.83
2018-03-21T19:44:53.283Z,12.23
2018-03-21T19:47:22.389Z,8.03
2018-03-21T19:49:52.947Z,6.90
2018-03-21T19:52:24.061Z,4.83
2018-03-21T19:54:53.064Z,6.93
2018-03-21T19:57:21.462Z,9.03
2018-03-21T19:59:49.127Z,5.50
2018-03-21T20:02:17.752Z,9.83
2018-03-21T20:04:47.399Z,6.57
2018-03-21T20:07:16.894Z,8.13
2018-03-21T20:09:43.932Z,4.77
2018-03-21T20:12:15.462Z,4.60
2018-03-21T20:14:43.862Z,5.67
2018-03-21T20:17:25.471Z,10.20
2018-03-21T20:19:54.749Z,10.57
2018-03-21T20:22:34.134Z,10.50
2018-03-21T20:25:01.484Z,11.13
2018-03-21T20:27:28.946Z,11.60
2018-03-21T20:29:57.169Z,12.83
2018-03-21T20:32:46.086Z,13.63
2018-03-21T20:35:16.398Z,16.20
2018-03-21T20:37:49.627Z,22.70
2018-03-21T20:40:18.254Z,14.50
2018-03-21T20:42:46.422Z,9.20
2018-03-21T20:45:14.618Z,12.80
2018-03-21T20:48:01.079Z,26.00
2018-03-21T20:50:30.248Z,10.30
2018-03-21T20:52:57.545Z,5.90
2018-03-21T20:55:46.564Z,10.60
2018-03-21T20:58:17.785Z,9.07
2018-03-21T21:00:45.453Z,10.00
2018-03-21T21:03:12.803Z,12.40
2018-03-21T21:05:43.164Z,12.50
2018-03-21T21:08:15.820Z,10.83
2018-03-21T21:10:43.476Z,12.50
2018-03-21T21:13:25.309Z,11.00
2018-03-21T21:15:57.847Z,10.97
2018-03-21T21:18:37.668Z,7.30
2018-03-21T21:21:12.359Z,5.47
2018-03-21T21:23:39.719Z,5.73
2018-03-21T21:26:07.555Z,8.17
2018-03-21T21:28:34.884Z,6.57
2018-03-21T21:31:03.426Z,8.60
2018-03-21T21:33:30.744Z,9.20
2018-03-21T21:35:59.869Z,15.70
2018-03-21T21:38:27.576Z,17.90
2018-03-21T21:40:54.823Z,12.40
2018-03-21T21:43:24.291Z,12.27
2018-03-21T21:45:54.054Z,8.03
2018-03-21T21:48:28.056Z,9.80
2018-03-21T21:50:55.436Z,12.60
2018-03-21T21:53:27.902Z,8.60
2018-03-21T21:56:00.500Z,8.20
2018-03-21T21:58:46.752Z,7.67
2018-03-21T22:01:21.517Z,7.43
2018-03-21T22:03:53.720Z,7.50
2018-03-21T22:06:21.380Z,7.97
2018-03-21T22:08:50.057Z,6.53
2018-03-21T22:11:16.746Z,7.93
2018-03-21T22:13:49.823Z,14.03
2018-03-21T22:16:22.227Z,8.10
2018-03-21T22:18:50.223Z,19.77
2018-03-21T22:21:31.087Z,18.73
2018-03-21T22:24:01.238Z,19.73
2018-03-21T22:26:27.878Z,15.17
2018-03-21T22:28:57.223Z,12.07
2018-03-21T22:31:28.747Z,5.90
2018-03-21T22:33:58.325Z,5.70
2018-03-21T22:36:25.735Z,5.80
2018-03-21T22:38:53.106Z,8.70
2018-03-21T22:41:25.854Z,12.60
2018-03-21T22:43:56.746Z,9.53
2018-03-21T22:46:27.123Z,12.07
2018-03-21T22:48:54.439Z,13.13
2018-03-21T22:51:21.808Z,14.27
2018-03-21T22:53:49.218Z,13.60
2018-03-21T22:56:17.099Z,7.73
2018-03-21T22:58:57.606Z,11.67
2018-03-21T23:01:24.906Z,11.80
2018-03-21T23:04:11.528Z,15.87
2018-03-21T23:06:53.231Z,15.03
2018-03-21T23:09:29.092Z,13.73
2018-03-21T23:11:56.463Z,13.53
2018-03-21T23:14:27.943Z,12.23
2018-03-21T23:16:56.454Z,11.03
2018-03-21T23:19:23.728Z,8.37
2018-03-21T23:21:59.287Z,9.97
2018-03-21T23:24:28.695Z,14.17
2018-03-21T23:26:55.953Z,11.70
2018-03-21T23:29:23.326Z,12.63
2018-03-21T23:32:01.415Z,9.97
2018-03-21T23:34:33.831Z,13.97
2018-03-21T23:37:01.131Z,10.70
2018-03-21T23:39:46.811Z,9.27
2018-03-21T23:42:19.207Z,9.10
2018-03-21T23:44:57.927Z,10.33
2018-03-21T23:47:29.253Z,7.20
2018-03-21T23:49:58.618Z,9.10
2018-03-21T23:52:26.019Z,7.90
2018-03-21T23:54:54.138Z,10.13
2018-03-21T23:57:26.819Z,9.50
